sensor_id;sensor_type;location;lat;lon;timestamp;pressure;altitude;pressure_sealevel;temperature;humidity
46045;BME280;31781;54.094;13.428;2022-07-23T00:01:34;101767.47;;;17.22;55.08
46045;BME280;31781;54.094;13.428;2022-07-23T00:06:42;101773.63;;;17.17;55.23
46045;BME280;31781;54.094;13.428;2022-07-23T00:11:45;101769.66;;;17.13;53.85
46045;BME280;31781;54.094;13.428;2022-07-23T00:16:47;101763.16;;;17.08;55.17
46045;BME280;31781;54.094;13.428;2022-07-23T00:21:55;101755.34;;;17.04;54.91
46045;BME280;31781;54.094;13.428;2022-07-23T00:26:58;101762.16;;;17.02;54.11
46045;BME280;31781;54.094;13.428;2022-07-23T00:32:01;101759.03;;;16.98;55.66
46045;BME280;31781;54.094;13.428;2022-07-23T00:37:09;101747.63;;;16.95;55.87
46045;BME280;31781;54.094;13.428;2022-07-23T00:42:12;101742.59;;;16.92;54.42
46045;BME280;31781;54.094;13.428;2022-07-23T00:47:15;101743.28;;;16.87;56.18
46045;BME280;31781;54.094;13.428;2022-07-23T00:57:42;101732.88;;;16.89;53.73
46045;BME280;31781;54.094;13.428;2022-07-23T01:02:44;101733.41;;;16.80;54.90
46045;BME280;31781;54.094;13.428;2022-07-23T01:07:49;101724.78;;;16.76;56.43
46045;BME280;31781;54.094;13.428;2022-07-23T01:13:03;101729.03;;;16.72;56.49
46045;BME280;31781;54.094;13.428;2022-07-23T01:18:08;101739.44;;;16.70;54.63
46045;BME280;31781;54.094;13.428;2022-07-23T01:23:16;101756.59;;;16.66;56.58
46045;BME280;31781;54.094;13.428;2022-07-23T01:28:19;101743.31;;;16.63;55.32
46045;BME280;31781;54.094;13.428;2022-07-23T01:33:21;101745.03;;;16.57;56.79
46045;BME280;31781;54.094;13.428;2022-07-23T01:38:29;101752.00;;;16.53;56.79
46045;BME280;31781;54.094;13.428;2022-07-23T01:43:32;101740.41;;;16.51;54.92
46045;BME280;31781;54.094;13.428;2022-07-23T01:48:35;101733.66;;;16.47;56.37
46045;BME280;31781;54.094;13.428;2022-07-23T01:53:43;101727.78;;;16.43;56.75
46045;BME280;31781;54.094;13.428;2022-07-23T01:58:46;101728.44;;;16.39;55.32
46045;BME280;31781;54.094;13.428;2022-07-23T02:03:49;101744.34;;;16.30;56.88
46045;BME280;31781;54.094;13.428;2022-07-23T02:08:57;101740.81;;;16.23;56.90
46045;BME280;31781;54.094;13.428;2022-07-23T02:14:00;101742.97;;;16.21;55.99
46045;BME280;31781;54.094;13.428;2022-07-23T02:19:03;101726.53;;;16.15;57.64
46045;BME280;31781;54.094;13.428;2022-07-23T02:24:12;101730.53;;;16.12;57.81
46045;BME280;31781;54.094;13.428;2022-07-23T02:29:15;101736.28;;;16.11;56.08
46045;BME280;31781;54.094;13.428;2022-07-23T02:34:18;101740.28;;;16.08;58.15
46045;BME280;31781;54.094;13.428;2022-07-23T02:39:26;101735.63;;;16.08;58.11
46045;BME280;31781;54.094;13.428;2022-07-23T02:44:29;101727.19;;;16.10;56.78
46045;BME280;31781;54.094;13.428;2022-07-23T02:49:32;101721.69;;;16.10;58.37
46045;BME280;31781;54.094;13.428;2022-07-23T02:54:40;101716.81;;;16.12;58.10
46045;BME280;31781;54.094;13.428;2022-07-23T02:59:43;101720.81;;;16.16;56.74
46045;BME280;31781;54.094;13.428;2022-07-23T03:04:46;101710.66;;;16.17;58.34
46045;BME280;31781;54.094;13.428;2022-07-23T03:09:54;101707.47;;;16.20;58.40
46045;BME280;31781;54.094;13.428;2022-07-23T03:14:56;101705.97;;;16.24;56.74
46045;BME280;31781;54.094;13.428;2022-07-23T03:19:59;101697.28;;;16.27;58.24
46045;BME280;31781;54.094;13.428;2022-07-23T03:25:08;101715.84;;;16.31;58.38
46045;BME280;31781;54.094;13.428;2022-07-23T03:30:12;101705.03;;;16.36;56.78
46045;BME280;31781;54.094;13.428;2022-07-23T03:35:14;101704.78;;;16.38;58.30
46045;BME280;31781;54.094;13.428;2022-07-23T03:40:23;101701.81;;;16.39;57.82
46045;BME280;31781;54.094;13.428;2022-07-23T03:45:26;101709.62;;;16.42;56.70
46045;BME280;31781;54.094;13.428;2022-07-23T03:50:29;101707.47;;;16.44;57.92
46045;BME280;31781;54.094;13.428;2022-07-23T03:55:37;101709.16;;;16.45;57.80
46045;BME280;31781;54.094;13.428;2022-07-23T04:00:40;101708.94;;;16.47;56.70
46045;BME280;31781;54.094;13.428;2022-07-23T04:05:43;101707.87;;;16.48;57.66
46045;BME280;31781;54.094;13.428;2022-07-23T04:10:51;101706.81;;;16.49;58.00
46045;BME280;31781;54.094;13.428;2022-07-23T04:16:10;101701.06;;;16.57;55.47
46045;BME280;31781;54.094;13.428;2022-07-23T04:21:13;101707.19;;;16.52;56.35
46045;BME280;31781;54.094;13.428;2022-07-23T04:26:15;101710.56;;;16.54;57.88
46045;BME280;31781;54.094;13.428;2022-07-23T04:31:24;101709.47;;;16.55;58.03
46045;BME280;31781;54.094;13.428;2022-07-23T04:36:27;101708.25;;;16.58;56.62
46045;BME280;31781;54.094;13.428;2022-07-23T04:41:29;101689.16;;;16.63;57.63
46045;BME280;31781;54.094;13.428;2022-07-23T04:46:37;101685.97;;;16.66;58.17
46045;BME280;31781;54.094;13.428;2022-07-23T04:56:59;101681.78;;;16.82;56.59
46045;BME280;31781;54.094;13.428;2022-07-23T05:02:02;101692.19;;;16.80;57.08
46045;BME280;31781;54.094;13.428;2022-07-23T05:07:05;101689.59;;;16.85;58.44
46045;BME280;31781;54.094;13.428;2022-07-23T05:12:13;101672.19;;;16.91;58.49
46045;BME280;31781;54.094;13.428;2022-07-23T05:17:16;101675.91;;;16.96;57.14
46045;BME280;31781;54.094;13.428;2022-07-23T05:22:19;101675.47;;;16.99;58.53
46045;BME280;31781;54.094;13.428;2022-07-23T05:27:27;101682.59;;;17.07;58.53
46045;BME280;31781;54.094;13.428;2022-07-23T05:32:31;101688.97;;;17.19;57.44
46045;BME280;31781;54.094;13.428;2022-07-23T05:37:34;101689.44;;;17.34;57.98
46045;BME280;31781;54.094;13.428;2022-07-23T05:42:42;101696.44;;;17.48;57.98
46045;BME280;31781;54.094;13.428;2022-07-23T05:47:47;101690.19;;;17.60;57.03
46045;BME280;31781;54.094;13.428;2022-07-23T05:52:49;101681.25;;;17.64;57.45
46045;BME280;31781;54.094;13.428;2022-07-23T05:57:59;101689.41;;;17.71;57.30
46045;BME280;31781;54.094;13.428;2022-07-23T06:03:01;101669.34;;;17.82;56.47
46045;BME280;31781;54.094;13.428;2022-07-23T06:08:04;101667.25;;;17.95;56.84
46045;BME280;31781;54.094;13.428;2022-07-23T06:13:12;101651.22;;;18.16;56.20
46045;BME280;31781;54.094;13.428;2022-07-23T06:18:15;101658.31;;;18.35;55.17
46045;BME280;31781;54.094;13.428;2022-07-23T06:28:36;101649.81;;;18.94;53.55
46045;BME280;31781;54.094;13.428;2022-07-23T06:33:55;101661.88;;;19.17;52.92
46045;BME280;31781;54.094;13.428;2022-07-23T06:38:58;101669.78;;;19.25;51.76
46045;BME280;31781;54.094;13.428;2022-07-23T06:44:01;101658.84;;;19.30;51.54
46045;BME280;31781;54.094;13.428;2022-07-23T06:49:22;101652.44;;;19.41;51.29
46045;BME280;31781;54.094;13.428;2022-07-23T06:54:25;101651.25;;;19.37;51.24
46045;BME280;31781;54.094;13.428;2022-07-23T06:59:27;101663.13;;;19.37;51.59
46045;BME280;31781;54.094;13.428;2022-07-23T07:04:46;101667.59;;;19.50;51.60
46045;BME280;31781;54.094;13.428;2022-07-23T07:09:49;101674.78;;;19.39;52.19
46045;BME280;31781;54.094;13.428;2022-07-23T07:14:52;101679.84;;;19.71;51.37
46045;BME280;31781;54.094;13.428;2022-07-23T07:20:00;101688.75;;;19.73;51.12
46045;BME280;31781;54.094;13.428;2022-07-23T07:25:03;101687.63;;;19.74;50.79
46045;BME280;31781;54.094;13.428;2022-07-23T07:35:26;101682.50;;;19.94;50.68
46045;BME280;31781;54.094;13.428;2022-07-23T07:40:29;101679.75;;;20.11;50.15
46045;BME280;31781;54.094;13.428;2022-07-23T07:45:34;101683.28;;;20.23;48.84
46045;BME280;31781;54.094;13.428;2022-07-23T07:50:43;101677.03;;;20.27;49.15
46045;BME280;31781;54.094;13.428;2022-07-23T07:55:47;101678.47;;;20.30;49.01
46045;BME280;31781;54.094;13.428;2022-07-23T08:00:52;101685.06;;;20.29;48.85
46045;BME280;31781;54.094;13.428;2022-07-23T08:06:00;101684.25;;;20.28;48.65
46045;BME280;31781;54.094;13.428;2022-07-23T08:11:03;101687.69;;;20.35;48.59
46045;BME280;31781;54.094;13.428;2022-07-23T08:16:06;101678.22;;;20.48;48.47
46045;BME280;31781;54.094;13.428;2022-07-23T08:21:15;101688.09;;;20.61;47.71
46045;BME280;31781;54.094;13.428;2022-07-23T08:26:37;101686.47;;;20.81;48.06
46045;BME280;31781;54.094;13.428;2022-07-23T08:31:39;101681.81;;;21.04;47.02
46045;BME280;31781;54.094;13.428;2022-07-23T08:36:42;101694.22;;;21.18;45.77
46045;BME280;31781;54.094;13.428;2022-07-23T08:41:50;101688.50;;;21.24;45.00
46045;BME280;31781;54.094;13.428;2022-07-23T08:46:53;101672.78;;;21.30;45.67
46045;BME280;31781;54.094;13.428;2022-07-23T08:51:56;101689.72;;;21.33;45.39
46045;BME280;31781;54.094;13.428;2022-07-23T08:57:04;101675.19;;;21.43;44.73
46045;BME280;31781;54.094;13.428;2022-07-23T09:02:07;101674.22;;;21.54;44.50
46045;BME280;31781;54.094;13.428;2022-07-23T09:07:10;101668.72;;;21.59;44.35
46045;BME280;31781;54.094;13.428;2022-07-23T09:12:18;101683.78;;;21.68;44.14
46045;BME280;31781;54.094;13.428;2022-07-23T09:17:21;101681.31;;;21.72;44.18
46045;BME280;31781;54.094;13.428;2022-07-23T09:22:26;101672.25;;;21.76;43.46
46045;BME280;31781;54.094;13.428;2022-07-23T09:33:10;101668.72;;;22.45;44.12
46045;BME280;31781;54.094;13.428;2022-07-23T09:38:14;101676.16;;;22.71;42.78
46045;BME280;31781;54.094;13.428;2022-07-23T09:43:26;101664.50;;;23.16;40.60
46045;BME280;31781;54.094;13.428;2022-07-23T09:48:41;101673.63;;;23.11;40.37
46045;BME280;31781;54.094;13.428;2022-07-23T09:53:44;101671.06;;;22.95;40.95
46045;BME280;31781;54.094;13.428;2022-07-23T09:58:50;101667.09;;;22.86;41.37
46045;BME280;31781;54.094;13.428;2022-07-23T10:03:58;101682.41;;;22.93;41.76
46045;BME280;31781;54.094;13.428;2022-07-23T10:09:02;101671.41;;;23.08;41.45
46045;BME280;31781;54.094;13.428;2022-07-23T10:14:05;101673.09;;;23.09;41.43
46045;BME280;31781;54.094;13.428;2022-07-23T10:19:13;101677.50;;;23.05;40.93
46045;BME280;31781;54.094;13.428;2022-07-23T10:24:24;101674.16;;;23.03;42.02
46045;BME280;31781;54.094;13.428;2022-07-23T10:29:41;101671.41;;;23.13;42.14
46045;BME280;31781;54.094;13.428;2022-07-23T10:34:52;101681.72;;;23.18;41.69
46045;BME280;31781;54.094;13.428;2022-07-23T10:45:33;101688.47;;;23.37;41.94
46045;BME280;31781;54.094;13.428;2022-07-23T10:50:37;101685.16;;;23.35;41.07
46045;BME280;31781;54.094;13.428;2022-07-23T10:55:51;101685.75;;;23.42;40.68
46045;BME280;31781;54.094;13.428;2022-07-23T11:01:00;101691.59;;;23.46;40.45
46045;BME280;31781;54.094;13.428;2022-07-23T11:06:18;101696.62;;;23.49;41.00
46045;BME280;31781;54.094;13.428;2022-07-23T11:11:28;101701.81;;;23.40;41.25
46045;BME280;31781;54.094;13.428;2022-07-23T11:16:31;101704.06;;;23.43;40.28
46045;BME280;31781;54.094;13.428;2022-07-23T11:21:56;101706.06;;;23.58;39.99
46045;BME280;31781;54.094;13.428;2022-07-23T11:27:01;101701.41;;;23.68;39.24
46045;BME280;31781;54.094;13.428;2022-07-23T11:32:06;101700.03;;;23.81;39.01
46045;BME280;31781;54.094;13.428;2022-07-23T11:42:58;101705.09;;;23.99;39.66
46045;BME280;31781;54.094;13.428;2022-07-23T11:48:03;101696.47;;;23.91;39.31
46045;BME280;31781;54.094;13.428;2022-07-23T11:53:06;101700.88;;;23.82;38.57
46045;BME280;31781;54.094;13.428;2022-07-23T11:58:14;101708.94;;;23.78;39.09
46045;BME280;31781;54.094;13.428;2022-07-23T12:03:17;101708.13;;;23.88;40.01
46045;BME280;31781;54.094;13.428;2022-07-23T12:08:20;101696.75;;;23.94;38.88
46045;BME280;31781;54.094;13.428;2022-07-23T12:13:28;101714.25;;;23.95;38.42
46045;BME280;31781;54.094;13.428;2022-07-23T12:18:31;101708.41;;;23.91;39.07
46045;BME280;31781;54.094;13.428;2022-07-23T12:23:36;101705.63;;;23.91;38.64
46045;BME280;31781;54.094;13.428;2022-07-23T12:28:51;101710.91;;;23.88;38.99
46045;BME280;31781;54.094;13.428;2022-07-23T12:33:56;101714.78;;;23.82;39.57
46045;BME280;31781;54.094;13.428;2022-07-23T12:39:03;101700.56;;;23.73;38.96
46045;BME280;31781;54.094;13.428;2022-07-23T12:44:19;101711.66;;;23.63;39.18
46045;BME280;31781;54.094;13.428;2022-07-23T12:49:25;101706.06;;;23.58;39.97
46045;BME280;31781;54.094;13.428;2022-07-23T12:54:30;101705.78;;;23.54;39.94
46045;BME280;31781;54.094;13.428;2022-07-23T12:59:38;101704.72;;;23.60;39.70
46045;BME280;31781;54.094;13.428;2022-07-23T13:04:41;101697.50;;;23.69;39.90
46045;BME280;31781;54.094;13.428;2022-07-23T13:09:44;101699.50;;;23.84;39.33
46045;BME280;31781;54.094;13.428;2022-07-23T13:14:52;101706.69;;;23.80;38.88
46045;BME280;31781;54.094;13.428;2022-07-23T13:19:55;101706.41;;;23.71;39.62
46045;BME280;31781;54.094;13.428;2022-07-23T13:24:58;101719.44;;;23.61;38.66
46045;BME280;31781;54.094;13.428;2022-07-23T13:30:08;101718.00;;;23.48;38.55
46045;BME280;31781;54.094;13.428;2022-07-23T13:35:11;101719.94;;;23.43;39.57
46045;BME280;31781;54.094;13.428;2022-07-23T13:40:18;101716.59;;;23.46;39.11
46045;BME280;31781;54.094;13.428;2022-07-23T13:45:31;101713.56;;;23.52;39.52
46045;BME280;31781;54.094;13.428;2022-07-23T13:50:34;101718.56;;;23.55;39.41
46045;BME280;31781;54.094;13.428;2022-07-23T13:55:39;101730.22;;;23.47;38.47
46045;BME280;31781;54.094;13.428;2022-07-23T14:00:54;101723.75;;;23.37;38.90
46045;BME280;31781;54.094;13.428;2022-07-23T14:05:57;101721.75;;;23.32;39.39
46045;BME280;31781;54.094;13.428;2022-07-23T14:11:00;101729.53;;;23.30;39.08
46045;BME280;31781;54.094;13.428;2022-07-23T14:21:32;101725.37;;;23.33;40.32
46045;BME280;31781;54.094;13.428;2022-07-23T14:26:35;101728.13;;;23.22;40.69
46045;BME280;31781;54.094;13.428;2022-07-23T14:31:38;101726.13;;;23.13;39.75
46045;BME280;31781;54.094;13.428;2022-07-23T14:36:47;101733.03;;;23.05;40.54
46045;BME280;31781;54.094;13.428;2022-07-23T14:41:51;101730.50;;;23.04;41.26
46045;BME280;31781;54.094;13.428;2022-07-23T14:46:55;101732.81;;;23.17;41.02
46045;BME280;31781;54.094;13.428;2022-07-23T14:52:04;101724.78;;;23.20;40.57
46045;BME280;31781;54.094;13.428;2022-07-23T14:57:08;101729.25;;;23.26;41.08
46045;BME280;31781;54.094;13.428;2022-07-23T15:02:11;101733.97;;;23.26;41.29
46045;BME280;31781;54.094;13.428;2022-07-23T15:07:20;101738.13;;;23.23;41.20
46045;BME280;31781;54.094;13.428;2022-07-23T15:12:27;101731.16;;;23.21;41.58
46045;BME280;31781;54.094;13.428;2022-07-23T15:17:30;101740.56;;;23.15;41.31
46045;BME280;31781;54.094;13.428;2022-07-23T15:22:39;101734.16;;;23.09;41.57
46045;BME280;31781;54.094;13.428;2022-07-23T15:27:42;101742.19;;;23.11;42.36
46045;BME280;31781;54.094;13.428;2022-07-23T15:32:46;101739.16;;;23.12;41.97
46045;BME280;31781;54.094;13.428;2022-07-23T15:37:54;101734.16;;;23.14;41.84
46045;BME280;31781;54.094;13.428;2022-07-23T15:43:13;101738.97;;;23.24;42.18
46045;BME280;31781;54.094;13.428;2022-07-23T15:48:19;101742.78;;;23.18;42.16
46045;BME280;31781;54.094;13.428;2022-07-23T15:53:23;101736.44;;;23.22;42.34
46045;BME280;31781;54.094;13.428;2022-07-23T15:58:51;101745.94;;;23.32;41.36
46045;BME280;31781;54.094;13.428;2022-07-23T16:03:53;101745.69;;;23.38;40.92
46045;BME280;31781;54.094;13.428;2022-07-23T16:08:56;101745.22;;;23.46;40.86
46045;BME280;31781;54.094;13.428;2022-07-23T16:14:10;101746.56;;;23.44;40.72
46045;BME280;31781;54.094;13.428;2022-07-23T16:19:12;101755.75;;;23.44;40.48
46045;BME280;31781;54.094;13.428;2022-07-23T16:24:15;101759.84;;;23.37;40.45
46045;BME280;31781;54.094;13.428;2022-07-23T16:29:23;101761.44;;;23.22;40.76
46045;BME280;31781;54.094;13.428;2022-07-23T16:34:26;101761.34;;;23.07;41.39
46045;BME280;31781;54.094;13.428;2022-07-23T16:39:29;101758.44;;;22.92;42.06
46045;BME280;31781;54.094;13.428;2022-07-23T16:44:37;101766.94;;;22.75;42.64
46045;BME280;31781;54.094;13.428;2022-07-23T16:49:40;101774.31;;;22.65;42.44
46045;BME280;31781;54.094;13.428;2022-07-23T16:54:43;101771.72;;;22.53;42.77
46045;BME280;31781;54.094;13.428;2022-07-23T16:59:51;101780.88;;;22.54;43.21
46045;BME280;31781;54.094;13.428;2022-07-23T17:04:54;101780.34;;;22.57;42.76
46045;BME280;31781;54.094;13.428;2022-07-23T17:09:56;101769.56;;;22.60;42.59
46045;BME280;31781;54.094;13.428;2022-07-23T17:15:15;101772.19;;;22.72;42.74
46045;BME280;31781;54.094;13.428;2022-07-23T17:20:18;101777.44;;;22.68;42.65
46045;BME280;31781;54.094;13.428;2022-07-23T17:25:21;101773.81;;;22.68;43.18
46045;BME280;31781;54.094;13.428;2022-07-23T17:30:31;101775.97;;;22.66;43.55
46045;BME280;31781;54.094;13.428;2022-07-23T17:35:34;101787.88;;;22.61;43.58
46045;BME280;31781;54.094;13.428;2022-07-23T17:40:37;101785.59;;;22.53;44.09
46045;BME280;31781;54.094;13.428;2022-07-23T17:45:45;101783.91;;;22.52;44.18
46045;BME280;31781;54.094;13.428;2022-07-23T17:50:48;101794.06;;;22.68;43.94
46045;BME280;31781;54.094;13.428;2022-07-23T17:55:55;101802.72;;;22.72;43.89
46045;BME280;31781;54.094;13.428;2022-07-23T18:01:04;101801.53;;;22.41;43.99
46045;BME280;31781;54.094;13.428;2022-07-23T18:06:07;101801.53;;;22.14;43.96
46045;BME280;31781;54.094;13.428;2022-07-23T18:11:09;101804.50;;;21.86;44.53
46045;BME280;31781;54.094;13.428;2022-07-23T18:16:18;101800.56;;;21.60;45.12
46045;BME280;31781;54.094;13.428;2022-07-23T18:21:21;101807.72;;;21.40;45.34
46045;BME280;31781;54.094;13.428;2022-07-23T18:26:24;101808.28;;;21.20;45.95
46045;BME280;31781;54.094;13.428;2022-07-23T18:31:32;101802.72;;;21.03;46.29
46045;BME280;31781;54.094;13.428;2022-07-23T18:36:35;101812.72;;;20.87;46.49
46045;BME280;31781;54.094;13.428;2022-07-23T18:41:38;101823.19;;;20.69;47.81
46045;BME280;31781;54.094;13.428;2022-07-23T18:46:46;101819.03;;;20.55;48.22
46045;BME280;31781;54.094;13.428;2022-07-23T18:51:49;101819.38;;;20.42;48.06
46045;BME280;31781;54.094;13.428;2022-07-23T18:56:52;101826.87;;;20.29;49.67
46045;BME280;31781;54.094;13.428;2022-07-23T19:02:05;101825.56;;;20.20;49.61
46045;BME280;31781;54.094;13.428;2022-07-23T19:07:08;101836.16;;;20.12;48.91
46045;BME280;31781;54.094;13.428;2022-07-23T19:12:11;101850.37;;;20.04;50.21
46045;BME280;31781;54.094;13.428;2022-07-23T19:17:19;101851.59;;;19.96;50.52
46045;BME280;31781;54.094;13.428;2022-07-23T19:22:22;101860.03;;;19.89;49.66
46045;BME280;31781;54.094;13.428;2022-07-23T19:27:24;101859.81;;;19.79;50.31
46045;BME280;31781;54.094;13.428;2022-07-23T19:32:33;101857.19;;;19.73;50.36
46045;BME280;31781;54.094;13.428;2022-07-23T19:37:37;101865.84;;;19.65;50.21
46045;BME280;31781;54.094;13.428;2022-07-23T19:42:40;101873.41;;;19.58;50.71
46045;BME280;31781;54.094;13.428;2022-07-23T19:47:48;101863.56;;;19.50;50.88
46045;BME280;31781;54.094;13.428;2022-07-23T19:52:55;101871.97;;;19.43;50.25
46045;BME280;31781;54.094;13.428;2022-07-23T20:03:17;101882.72;;;19.33;50.00
46045;BME280;31781;54.094;13.428;2022-07-23T20:08:20;101887.87;;;19.18;50.84
46045;BME280;31781;54.094;13.428;2022-07-23T20:13:22;101882.09;;;19.08;52.05
46045;BME280;31781;54.094;13.428;2022-07-23T20:18:36;101891.56;;;19.01;52.16
46045;BME280;31781;54.094;13.428;2022-07-23T20:23:47;101888.31;;;18.92;51.30
46045;BME280;31781;54.094;13.428;2022-07-23T20:28:50;101890.81;;;18.82;52.77
46045;BME280;31781;54.094;13.428;2022-07-23T20:33:58;101897.75;;;18.73;53.00
46045;BME280;31781;54.094;13.428;2022-07-23T20:39:02;101900.84;;;18.65;52.03
46045;BME280;31781;54.094;13.428;2022-07-23T20:44:07;101900.31;;;18.56;53.49
46045;BME280;31781;54.094;13.428;2022-07-23T20:49:26;101902.47;;;18.54;51.75
46045;BME280;31781;54.094;13.428;2022-07-23T20:54:29;101902.00;;;18.39;52.44
46045;BME280;31781;54.094;13.428;2022-07-23T20:59:32;101913.56;;;18.29;53.95
46045;BME280;31781;54.094;13.428;2022-07-23T21:04:40;101916.88;;;18.20;54.13
46045;BME280;31781;54.094;13.428;2022-07-23T21:09:47;101934.56;;;18.12;53.09
46045;BME280;31781;54.094;13.428;2022-07-23T21:14:51;101924.31;;;18.01;54.39
46045;BME280;31781;54.094;13.428;2022-07-23T21:19:59;101934.56;;;17.94;54.58
46045;BME280;31781;54.094;13.428;2022-07-23T21:25:02;101936.75;;;17.85;53.79
46045;BME280;31781;54.094;13.428;2022-07-23T21:30:12;101939.00;;;17.77;55.25
46045;BME280;31781;54.094;13.428;2022-07-23T21:35:20;101938.22;;;17.70;55.41
46045;BME280;31781;54.094;13.428;2022-07-23T21:40:23;101942.50;;;17.66;54.39
46045;BME280;31781;54.094;13.428;2022-07-23T21:45:26;101944.84;;;17.62;55.66
46045;BME280;31781;54.094;13.428;2022-07-23T21:50:34;101952.47;;;17.60;55.75
46045;BME280;31781;54.094;13.428;2022-07-23T21:55:37;101955.47;;;17.59;54.44
46045;BME280;31781;54.094;13.428;2022-07-23T22:00:40;101957.38;;;17.58;55.34
46045;BME280;31781;54.094;13.428;2022-07-23T22:05:48;101958.22;;;17.59;55.38
46045;BME280;31781;54.094;13.428;2022-07-23T22:10:51;101958.22;;;17.59;54.32
46045;BME280;31781;54.094;13.428;2022-07-23T22:15:54;101960.13;;;17.58;55.29
46045;BME280;31781;54.094;13.428;2022-07-23T22:21:14;101946.31;;;17.65;53.35
46045;BME280;31781;54.094;13.428;2022-07-23T22:26:37;101951.87;;;17.58;54.30
46045;BME280;31781;54.094;13.428;2022-07-23T22:31:40;101951.22;;;17.56;55.19
46045;BME280;31781;54.094;13.428;2022-07-23T22:36:48;101945.94;;;17.55;55.39
46045;BME280;31781;54.094;13.428;2022-07-23T22:41:51;101948.91;;;17.53;54.15
46045;BME280;31781;54.094;13.428;2022-07-23T22:46:54;101937.91;;;17.53;55.53
46045;BME280;31781;54.094;13.428;2022-07-23T22:52:02;101947.22;;;17.52;55.72
46045;BME280;31781;54.094;13.428;2022-07-23T22:57:21;101941.72;;;17.59;53.51
46045;BME280;31781;54.094;13.428;2022-07-23T23:02:24;101947.47;;;17.50;54.47
46045;BME280;31781;54.094;13.428;2022-07-23T23:07:27;101946.00;;;17.48;55.80
46045;BME280;31781;54.094;13.428;2022-07-23T23:12:35;101944.53;;;17.45;55.78
46045;BME280;31781;54.094;13.428;2022-07-23T23:17:37;101940.72;;;17.46;54.53
46045;BME280;31781;54.094;13.428;2022-07-23T23:22:40;101937.97;;;17.46;55.86
46045;BME280;31781;54.094;13.428;2022-07-23T23:27:51;101944.31;;;17.47;55.67
46045;BME280;31781;54.094;13.428;2022-07-23T23:32:54;101945.56;;;17.51;54.53
46045;BME280;31781;54.094;13.428;2022-07-23T23:38:12;101946.38;;;17.58;53.87
46045;BME280;31781;54.094;13.428;2022-07-23T23:43:15;101949.13;;;17.51;54.54
46045;BME280;31781;54.094;13.428;2022-07-23T23:48:18;101948.31;;;17.51;55.95
46045;BME280;31781;54.094;13.428;2022-07-23T23:53:26;101942.19;;;17.49;56.06
46045;BME280;31781;54.094;13.428;2022-07-23T23:58:29;101957.00;;;17.48;55.15
